createdAt,value
2024-01-30T00:00:22.082Z,90.54
2024-01-30T00:01:22.185Z,90.44
2024-01-30T00:02:22.097Z,90.12
2024-01-30T00:03:22.065Z,90.33
2024-01-30T00:04:22.086Z,90.23
2024-01-30T00:05:22.096Z,90.23
2024-01-30T00:06:22.041Z,89.92
2024-01-30T00:07:22.151Z,89.92
2024-01-30T00:08:22.048Z,90.23
2024-01-30T00:09:21.985Z,90.12
2024-01-30T00:10:22.077Z,90.02
2024-01-30T00:11:22.016Z,90.12
2024-01-30T00:12:21.961Z,90.54
2024-01-30T00:13:22.027Z,90.44
2024-01-30T00:14:21.982Z,90.44
2024-01-30T00:15:21.942Z,90.23
2024-01-30T00:16:21.994Z,90.02
2024-01-30T00:17:21.886Z,89.81
2024-01-30T00:18:21.887Z,89.71
2024-01-30T00:19:22.005Z,90.12
2024-01-30T00:20:22.185Z,90.23
2024-01-30T00:21:21.907Z,90.23
2024-01-30T00:22:21.942Z,89.92
2024-01-30T00:23:21.842Z,89.92
2024-01-30T00:24:21.860Z,89.92
2024-01-30T00:25:21.846Z,89.81
2024-01-30T00:26:21.831Z,89.61
2024-01-30T00:27:21.828Z,89.81
2024-01-30T00:28:21.821Z,90.12
2024-01-30T00:29:21.765Z,89.92
2024-01-30T00:30:21.796Z,89.61
2024-01-30T00:31:21.822Z,89.61
2024-01-30T00:32:21.797Z,90.12
2024-01-30T00:33:21.795Z,89.92
2024-01-30T00:34:21.790Z,89.40
2024-01-30T00:35:21.719Z,89.29
2024-01-30T00:36:21.700Z,89.71
2024-01-30T00:37:21.841Z,89.81
2024-01-30T00:38:21.732Z,89.71
2024-01-30T00:39:21.711Z,89.71
2024-01-30T00:40:21.771Z,89.50
2024-01-30T00:41:21.687Z,89.65
2024-01-30T00:42:21.632Z,89.86
2024-01-30T00:43:21.667Z,90.06
2024-01-30T00:44:21.657Z,90.48
2024-01-30T00:45:21.642Z,91.20
2024-01-30T00:46:21.712Z,91.00
2024-01-30T00:47:21.632Z,90.89
2024-01-30T00:48:21.583Z,90.27
2024-01-30T00:49:21.689Z,90.37
2024-01-30T00:50:21.631Z,90.58
2024-01-30T00:51:21.586Z,90.20
2024-01-30T00:52:21.675Z,90.20
2024-01-30T00:53:21.507Z,90.41
2024-01-30T00:54:21.525Z,90.72
2024-01-30T00:55:21.654Z,90.72
2024-01-30T00:56:21.554Z,90.72
2024-01-30T00:57:21.550Z,90.93
2024-01-30T00:58:21.550Z,91.45
2024-01-30T00:59:21.516Z,91.45
2024-01-30T01:00:21.457Z,91.39
2024-01-30T01:01:21.502Z,91.39
2024-01-30T01:02:21.453Z,91.70
2024-01-30T01:03:21.477Z,91.91
2024-01-30T01:04:21.540Z,91.55
2024-01-30T01:05:21.408Z,91.39
2024-01-30T01:06:21.430Z,92.01
2024-01-30T01:07:21.411Z,91.70
2024-01-30T01:08:21.401Z,91.39
2024-01-30T01:09:21.352Z,91.80
2024-01-30T01:10:21.473Z,91.91
2024-01-30T01:11:21.345Z,92.01
2024-01-30T01:12:21.333Z,91.91
2024-01-30T01:13:21.471Z,91.76
2024-01-30T01:14:21.337Z,91.76
2024-01-30T01:15:21.370Z,91.66
2024-01-30T01:16:21.460Z,91.55
2024-01-30T01:17:21.276Z,91.24
2024-01-30T01:18:21.292Z,91.35
2024-01-30T01:19:21.356Z,91.35
2024-01-30T01:20:21.261Z,91.24
2024-01-30T01:21:21.259Z,91.55
2024-01-30T01:22:21.320Z,91.28
2024-01-30T01:23:21.218Z,91.24
2024-01-30T01:24:21.247Z,91.28
2024-01-30T01:25:21.294Z,91.49
2024-01-30T01:26:21.220Z,91.60
2024-01-30T01:27:21.212Z,91.80
2024-01-30T01:28:21.295Z,91.91
2024-01-30T01:29:21.183Z,91.70
2024-01-30T01:30:21.142Z,91.70
2024-01-30T01:31:21.258Z,92.01
2024-01-30T01:32:21.145Z,91.60
2024-01-30T01:33:21.198Z,91.49
2024-01-30T01:34:21.199Z,91.80
2024-01-30T01:35:21.083Z,91.70
2024-01-30T01:36:21.086Z,91.91
2024-01-30T01:37:21.091Z,91.60
2024-01-30T01:38:21.075Z,91.60
2024-01-30T01:39:21.093Z,91.70
2024-01-30T01:40:21.111Z,91.60
2024-01-30T01:41:21.023Z,91.70
2024-01-30T01:42:20.998Z,91.80
2024-01-30T01:43:21.108Z,91.80
2024-01-30T01:44:21.027Z,92.01
2024-01-30T01:45:20.995Z,91.80
2024-01-30T01:46:21.003Z,91.80
2024-01-30T01:47:20.970Z,92.11
2024-01-30T01:48:21.007Z,92.01
2024-01-30T01:49:20.971Z,92.01
2024-01-30T01:50:21.221Z,92.05
2024-01-30T01:51:21.003Z,92.26
2024-01-30T01:52:20.937Z,92.26
2024-01-30T01:53:20.872Z,92.47
2024-01-30T01:54:20.868Z,92.47
2024-01-30T01:55:20.893Z,92.47
2024-01-30T01:56:20.853Z,92.57
2024-01-30T01:57:20.854Z,92.68
2024-01-30T01:58:20.865Z,92.68
2024-01-30T01:59:20.808Z,92.57
2024-01-30T02:00:20.797Z,92.68
2024-01-30T02:01:20.905Z,92.68
2024-01-30T02:02:20.819Z,92.99
2024-01-30T02:03:20.818Z,92.99
2024-01-30T02:04:20.781Z,92.99
2024-01-30T02:05:20.750Z,93.14
2024-01-30T02:06:20.732Z,93.10
2024-01-30T02:07:20.828Z,93.41
2024-01-30T02:08:20.773Z,93.30
2024-01-30T02:09:20.739Z,93.10
2024-01-30T02:10:20.875Z,93.10
2024-01-30T02:11:20.745Z,93.10
2024-01-30T02:12:20.688Z,93.10
2024-01-30T02:13:20.724Z,93.35
2024-01-30T02:14:20.685Z,93.30
2024-01-30T02:15:20.646Z,93.20
2024-01-30T02:16:20.656Z,93.45
2024-01-30T02:17:20.617Z,93.66
2024-01-30T02:18:20.622Z,93.45
2024-01-30T02:19:20.678Z,93.45
2024-01-30T02:20:20.705Z,93.45
2024-01-30T02:21:20.612Z,93.45
2024-01-30T02:22:20.589Z,93.45
2024-01-30T02:23:20.543Z,93.55
2024-01-30T02:24:20.582Z,93.55
2024-01-30T02:25:20.670Z,93.55
2024-01-30T02:26:20.536Z,93.41
2024-01-30T02:27:20.561Z,93.30
2024-01-30T02:28:20.596Z,93.35
2024-01-30T02:29:20.486Z,93.30
2024-01-30T02:30:20.479Z,93.41
2024-01-30T02:31:20.607Z,93.41
2024-01-30T02:32:20.488Z,93.41
2024-01-30T02:33:20.474Z,93.30
2024-01-30T02:34:20.571Z,93.41
2024-01-30T02:35:20.507Z,93.30
2024-01-30T02:36:20.448Z,93.20
2024-01-30T02:37:20.454Z,93.30
2024-01-30T02:38:20.425Z,93.41
2024-01-30T02:39:20.398Z,93.41
2024-01-30T02:40:20.493Z,93.30
2024-01-30T02:41:20.363Z,93.62
2024-01-30T02:42:20.378Z,93.62
2024-01-30T02:43:20.493Z,93.51
2024-01-30T02:44:20.353Z,92.99
2024-01-30T02:45:20.312Z,92.99
2024-01-30T02:46:20.335Z,93.10
2024-01-30T02:47:20.289Z,93.10
2024-01-30T02:48:20.308Z,93.10
2024-01-30T02:49:20.354Z,92.88
2024-01-30T02:50:20.381Z,92.82
2024-01-30T02:51:20.245Z,93.14
2024-01-30T02:52:20.305Z,93.35
2024-01-30T02:53:20.224Z,93.45
2024-01-30T02:54:20.228Z,93.45
2024-01-30T02:55:20.307Z,93.66
2024-01-30T02:56:20.193Z,93.55
2024-01-30T02:57:20.173Z,93.66
2024-01-30T02:58:20.224Z,93.66
2024-01-30T02:59:20.190Z,93.45
2024-01-30T03:00:20.154Z,93.55
2024-01-30T03:01:20.225Z,93.45
2024-01-30T03:02:20.225Z,93.45
2024-01-30T03:03:20.174Z,93.55
2024-01-30T03:04:20.251Z,93.55
2024-01-30T03:05:20.099Z,93.35
2024-01-30T03:06:20.157Z,93.35
2024-01-30T03:07:20.148Z,93.35
2024-01-30T03:08:20.134Z,93.45
2024-01-30T03:09:20.113Z,93.35
2024-01-30T03:10:20.093Z,93.35
2024-01-30T03:11:20.123Z,93.45
2024-01-30T03:12:20.029Z,93.35
2024-01-30T03:13:20.057Z,93.55
2024-01-30T03:14:20.005Z,93.76
2024-01-30T03:15:19.983Z,93.55
2024-01-30T03:16:19.988Z,93.66
2024-01-30T03:17:19.952Z,93.66
2024-01-30T03:18:19.975Z,93.60
2024-01-30T03:19:20.052Z,93.66
2024-01-30T03:20:19.928Z,93.55
2024-01-30T03:21:19.936Z,93.60
2024-01-30T03:22:19.952Z,93.80
2024-01-30T03:23:19.902Z,94.01
2024-01-30T03:24:19.877Z,94.12
2024-01-30T03:25:19.967Z,94.12
2024-01-30T03:26:19.879Z,94.12
2024-01-30T03:27:19.843Z,94.12
2024-01-30T03:28:19.975Z,94.12
2024-01-30T03:29:19.833Z,94.32
2024-01-30T03:30:19.821Z,94.43
2024-01-30T03:31:19.978Z,94.43
2024-01-30T03:32:19.815Z,94.53
2024-01-30T03:33:19.881Z,94.74
2024-01-30T03:34:19.821Z,94.22
2024-01-30T03:35:19.792Z,94.22
2024-01-30T03:36:19.778Z,94.32
2024-01-30T03:37:19.804Z,94.43
2024-01-30T03:38:19.746Z,94.22
2024-01-30T03:39:19.754Z,94.01
2024-01-30T03:40:19.735Z,94.12
2024-01-30T03:41:19.732Z,94.12
2024-01-30T03:42:19.679Z,94.01
2024-01-30T03:43:19.827Z,93.91
2024-01-30T03:44:19.665Z,93.60
2024-01-30T03:45:19.659Z,93.55
2024-01-30T03:46:19.739Z,93.35
2024-01-30T03:47:19.657Z,93.07
2024-01-30T03:48:19.632Z,92.72
2024-01-30T03:49:19.791Z,92.86
2024-01-30T03:50:19.671Z,92.97
2024-01-30T03:51:19.587Z,92.97
2024-01-30T03:52:19.601Z,93.07
2024-01-30T03:53:19.580Z,93.29
2024-01-30T03:54:19.549Z,93.39
2024-01-30T03:55:19.648Z,93.49
2024-01-30T03:56:19.532Z,93.80
2024-01-30T03:57:19.567Z,93.80
2024-01-30T03:58:19.617Z,94.01
2024-01-30T03:59:19.527Z,94.12
2024-01-30T04:00:19.485Z,94.12
2024-01-30T04:01:19.532Z,94.16
2024-01-30T04:02:19.667Z,94.16
2024-01-30T04:03:19.452Z,93.95
2024-01-30T04:04:19.521Z,93.95
2024-01-30T04:05:19.462Z,94.06
2024-01-30T04:06:19.430Z,94.26
2024-01-30T04:07:22.309Z,94.57
2024-01-30T04:08:19.422Z,94.68
2024-01-30T04:09:19.408Z,94.89
2024-01-30T04:10:19.433Z,94.89
2024-01-30T04:11:19.384Z,94.89
2024-01-30T04:12:19.347Z,95.20
2024-01-30T04:13:19.426Z,95.20
2024-01-30T04:14:19.323Z,95.09
2024-01-30T04:15:19.350Z,95.09
2024-01-30T04:16:19.421Z,94.99
2024-01-30T04:17:19.325Z,94.99
2024-01-30T04:18:19.330Z,95.09
2024-01-30T04:19:19.439Z,95.09
2024-01-30T04:20:19.421Z,95.30
2024-01-30T04:21:19.265Z,95.40
2024-01-30T04:22:19.303Z,95.51
2024-01-30T04:23:19.247Z,95.40
2024-01-30T04:24:19.223Z,95.40
2024-01-30T04:25:19.303Z,95.40
2024-01-30T04:26:19.195Z,95.51
2024-01-30T04:27:19.183Z,95.51
2024-01-30T04:28:19.311Z,95.40
2024-01-30T04:29:19.208Z,95.51
2024-01-30T04:30:19.160Z,95.30
2024-01-30T04:31:19.213Z,95.30
2024-01-30T04:32:19.133Z,95.20
2024-01-30T04:33:19.143Z,95.30
2024-01-30T04:34:19.238Z,95.51
2024-01-30T04:35:19.231Z,95.62
2024-01-30T04:36:19.124Z,95.83
2024-01-30T04:37:19.149Z,95.83
2024-01-30T04:38:19.128Z,95.62
2024-01-30T04:39:19.074Z,95.62
2024-01-30T04:40:19.102Z,95.62
2024-01-30T04:41:19.031Z,95.72
2024-01-30T04:42:19.048Z,95.62
2024-01-30T04:43:19.098Z,95.83
2024-01-30T04:44:18.999Z,95.93
2024-01-30T04:45:19.007Z,96.03
2024-01-30T04:46:19.049Z,96.14
2024-01-30T04:47:18.964Z,96.14
2024-01-30T04:48:19.064Z,96.34
2024-01-30T04:49:19.026Z,96.39
2024-01-30T04:50:18.940Z,96.39
2024-01-30T04:51:19.046Z,96.59
2024-01-30T04:52:18.992Z,96.45
2024-01-30T04:53:18.964Z,96.49
2024-01-30T04:54:18.891Z,96.45
2024-01-30T04:55:21.292Z,96.70
2024-01-30T04:56:18.882Z,96.76
2024-01-30T04:57:18.865Z,96.66
2024-01-30T04:58:18.974Z,96.66
2024-01-30T04:59:18.857Z,96.66
2024-01-30T05:00:18.832Z,96.66
2024-01-30T05:01:18.975Z,96.66
2024-01-30T05:02:18.872Z,96.55
2024-01-30T05:03:18.871Z,96.76
2024-01-30T05:04:18.900Z,96.97
2024-01-30T05:05:18.801Z,96.86
2024-01-30T05:06:18.788Z,96.45
2024-01-30T05:07:18.831Z,96.45
2024-01-30T05:08:18.735Z,96.66
2024-01-30T05:09:18.735Z,96.66
2024-01-30T05:10:18.783Z,96.76
2024-01-30T05:11:18.705Z,96.86
2024-01-30T05:12:18.740Z,96.86
2024-01-30T05:13:18.748Z,96.86
2024-01-30T05:14:18.678Z,96.86
2024-01-30T05:15:18.685Z,96.97
2024-01-30T05:16:18.765Z,96.97
2024-01-30T05:17:18.666Z,96.97
2024-01-30T05:18:18.735Z,96.97
2024-01-30T05:19:19.007Z,96.97
2024-01-30T05:20:18.649Z,96.97
2024-01-30T05:21:18.624Z,96.97
2024-01-30T05:22:18.746Z,96.86
2024-01-30T05:23:18.603Z,96.97
2024-01-30T05:24:21.076Z,96.97
2024-01-30T05:25:18.660Z,96.76
2024-01-30T05:26:18.551Z,96.76
2024-01-30T05:27:18.542Z,96.66
2024-01-30T05:28:18.567Z,96.45
2024-01-30T05:29:18.517Z,96.45
2024-01-30T05:30:18.542Z,96.24
2024-01-30T05:31:18.542Z,96.24
2024-01-30T05:32:18.517Z,96.14
2024-01-30T05:33:18.567Z,95.93
2024-01-30T05:34:18.474Z,95.83
2024-01-30T05:35:18.515Z,95.51
2024-01-30T05:36:18.472Z,95.62
2024-01-30T05:37:18.671Z,95.62
2024-01-30T05:38:18.416Z,95.62
2024-01-30T05:39:18.434Z,95.76
2024-01-30T05:40:18.529Z,95.66
2024-01-30T05:41:18.420Z,95.76
2024-01-30T05:42:18.365Z,95.76
2024-01-30T05:43:18.499Z,95.76
2024-01-30T05:44:18.349Z,95.87
2024-01-30T05:45:18.423Z,95.76
2024-01-30T05:46:19.352Z,95.87
2024-01-30T05:47:18.351Z,95.97
2024-01-30T05:48:18.289Z,96.08
2024-01-30T05:49:18.318Z,95.97
2024-01-30T05:50:18.349Z,95.66
2024-01-30T05:51:18.320Z,95.66
2024-01-30T05:52:18.324Z,95.66
2024-01-30T05:53:18.291Z,95.76
2024-01-30T05:54:18.394Z,95.66
2024-01-30T05:55:18.266Z,95.45
2024-01-30T05:56:18.229Z,95.25
2024-01-30T05:57:18.227Z,95.14
2024-01-30T05:58:18.365Z,95.14
2024-01-30T05:59:18.202Z,95.25
2024-01-30T06:00:18.240Z,95.35
2024-01-30T06:01:18.314Z,95.45
2024-01-30T06:02:18.226Z,95.25
2024-01-30T06:03:18.168Z,95.03
2024-01-30T06:04:18.272Z,94.82
2024-01-30T06:05:18.159Z,94.51
2024-01-30T06:06:18.153Z,94.87
2024-01-30T06:07:18.152Z,94.87
2024-01-30T06:08:18.144Z,95.29
2024-01-30T06:09:18.081Z,95.39
2024-01-30T06:10:18.152Z,95.39
2024-01-30T06:11:18.072Z,95.29
2024-01-30T06:12:18.046Z,95.29
2024-01-30T06:13:18.089Z,95.39
2024-01-30T06:14:18.051Z,95.39
2024-01-30T06:15:18.020Z,95.70
2024-01-30T06:16:18.039Z,95.70
2024-01-30T06:17:17.945Z,95.50
2024-01-30T06:18:17.977Z,95.50
2024-01-30T06:19:18.024Z,95.70
2024-01-30T06:20:17.957Z,95.91
2024-01-30T06:21:17.884Z,96.01
2024-01-30T06:22:18.084Z,96.01
2024-01-30T06:23:17.925Z,96.01
2024-01-30T06:24:17.908Z,96.01
2024-01-30T06:25:17.992Z,95.91
2024-01-30T06:26:17.836Z,95.70
2024-01-30T06:27:17.810Z,95.60
2024-01-30T06:28:17.865Z,95.60
2024-01-30T06:29:20.234Z,95.60
2024-01-30T06:30:17.940Z,95.60
2024-01-30T06:31:17.927Z,95.50
2024-01-30T06:32:17.797Z,95.39
2024-01-30T06:33:17.857Z,95.50
2024-01-30T06:34:17.879Z,95.70
2024-01-30T06:35:17.760Z,95.70
2024-01-30T06:36:17.734Z,96.06
2024-01-30T06:37:17.833Z,96.26
2024-01-30T06:38:17.729Z,96.48
2024-01-30T06:39:17.709Z,96.53
2024-01-30T06:40:17.713Z,96.37
2024-01-30T06:41:17.693Z,96.37
2024-01-30T06:42:17.739Z,96.58
2024-01-30T06:43:17.768Z,96.53
2024-01-30T06:44:17.650Z,96.53
2024-01-30T06:45:17.663Z,96.64
2024-01-30T06:46:17.664Z,96.33
2024-01-30T06:47:17.623Z,96.37
2024-01-30T06:48:17.652Z,96.43
2024-01-30T06:49:17.604Z,96.53
2024-01-30T06:50:17.619Z,96.43
2024-01-30T06:51:18.398Z,96.37
2024-01-30T06:52:17.620Z,96.48
2024-01-30T06:53:17.582Z,96.58
2024-01-30T06:54:17.580Z,96.69
2024-01-30T06:55:17.586Z,96.69
2024-01-30T06:56:17.544Z,96.69
2024-01-30T06:57:17.489Z,96.79
2024-01-30T06:58:17.567Z,96.89
2024-01-30T06:59:17.536Z,96.75
2024-01-30T07:00:17.583Z,96.69
2024-01-30T07:01:17.592Z,96.69
2024-01-30T07:02:17.510Z,96.89
2024-01-30T07:03:17.430Z,96.79
2024-01-30T07:04:17.541Z,96.79
2024-01-30T07:05:17.422Z,96.79
2024-01-30T07:06:17.451Z,96.85
2024-01-30T07:07:17.522Z,97.10
2024-01-30T07:08:17.364Z,97.06
2024-01-30T07:09:17.367Z,96.95
2024-01-30T07:10:17.388Z,97.06
2024-01-30T07:11:17.352Z,97.00
2024-01-30T07:12:17.462Z,97.10
2024-01-30T07:13:17.403Z,97.20
2024-01-30T07:14:17.297Z,97.31
2024-01-30T07:15:17.308Z,97.52
2024-01-30T07:16:17.300Z,97.52
2024-01-30T07:17:17.289Z,97.62
2024-01-30T07:18:17.285Z,97.72
2024-01-30T07:19:17.330Z,97.83
2024-01-30T07:20:18.446Z,97.83
2024-01-30T07:21:17.254Z,97.83
2024-01-30T07:22:17.292Z,97.83
2024-01-30T07:23:17.231Z,97.94
2024-01-30T07:24:17.215Z,97.83
2024-01-30T07:25:17.201Z,97.94
2024-01-30T07:26:17.172Z,98.04
2024-01-30T07:27:17.168Z,97.94
2024-01-30T07:28:17.260Z,98.04
2024-01-30T07:29:17.172Z,98.04
2024-01-30T07:30:17.149Z,98.14
2024-01-30T07:31:17.181Z,98.14
2024-01-30T07:32:17.138Z,98.04
2024-01-30T07:33:17.198Z,98.14
2024-01-30T07:34:17.249Z,98.14
2024-01-30T07:35:17.209Z,98.04
2024-01-30T07:36:17.084Z,97.94
2024-01-30T07:37:17.108Z,97.94
2024-01-30T07:38:17.049Z,98.04
2024-01-30T07:39:17.052Z,98.04
2024-01-30T07:40:17.065Z,98.14
2024-01-30T07:41:17.011Z,98.25
2024-01-30T07:42:17.001Z,98.35
2024-01-30T07:43:17.014Z,98.35
2024-01-30T07:44:16.986Z,98.35
2024-01-30T07:45:16.984Z,98.46
2024-01-30T07:46:17.074Z,98.41
2024-01-30T07:47:16.954Z,98.31
2024-01-30T07:48:16.999Z,98.52
2024-01-30T07:49:17.010Z,98.41
2024-01-30T07:50:16.953Z,98.52
2024-01-30T07:51:16.925Z,98.52
2024-01-30T07:52:16.916Z,98.52
2024-01-30T07:53:17.037Z,98.41
2024-01-30T07:54:16.896Z,98.41
2024-01-30T07:55:16.856Z,98.41
2024-01-30T07:56:16.865Z,98.41
2024-01-30T07:57:16.860Z,98.41
2024-01-30T07:58:16.875Z,98.41
2024-01-30T07:59:16.828Z,98.31
2024-01-30T08:00:16.828Z,98.31
2024-01-30T08:01:17.001Z,98.31
2024-01-30T08:02:16.785Z,98.52
2024-01-30T08:03:16.803Z,98.57
2024-01-30T08:04:16.947Z,98.47
2024-01-30T08:05:16.782Z,98.47
2024-01-30T08:06:16.796Z,98.26
2024-01-30T08:07:16.817Z,97.95
2024-01-30T08:08:16.719Z,98.05
2024-01-30T08:09:16.744Z,97.95
2024-01-30T08:10:16.834Z,98.16
2024-01-30T08:11:16.690Z,98.05
2024-01-30T08:12:16.680Z,98.16
2024-01-30T08:13:16.762Z,98.47
2024-01-30T08:14:16.693Z,98.57
2024-01-30T08:15:16.692Z,98.68
2024-01-30T08:16:16.704Z,98.78
2024-01-30T08:17:16.632Z,99.15
2024-01-30T08:18:16.714Z,99.46
2024-01-30T08:19:16.748Z,99.46
2024-01-30T08:20:16.639Z,99.36
2024-01-30T08:21:16.627Z,99.67
2024-01-30T08:22:16.702Z,99.63
2024-01-30T08:23:16.647Z,99.73
2024-01-30T08:24:16.605Z,99.84
2024-01-30T08:25:16.730Z,99.84
2024-01-30T08:26:16.802Z,99.84
2024-01-30T08:27:16.683Z,99.73
2024-01-30T08:28:18.877Z,99.90
2024-01-30T08:29:16.704Z,99.90
2024-01-30T08:30:16.531Z,99.58
2024-01-30T08:31:16.695Z,99.58
2024-01-30T08:32:16.500Z,99.58
2024-01-30T08:33:16.604Z,99.27
2024-01-30T08:34:16.531Z,99.16
2024-01-30T08:35:16.597Z,99.16
2024-01-30T08:36:16.424Z,98.91
2024-01-30T08:37:16.468Z,98.91
2024-01-30T08:38:16.624Z,98.71
2024-01-30T08:39:16.411Z,98.71
2024-01-30T08:40:16.476Z,98.50
2024-01-30T08:41:16.460Z,98.50
2024-01-30T08:42:16.448Z,98.60
2024-01-30T08:43:16.450Z,98.60
2024-01-30T08:44:16.461Z,98.60
2024-01-30T08:45:16.456Z,98.29
2024-01-30T08:46:16.437Z,97.83
2024-01-30T08:47:16.352Z,98.03
2024-01-30T08:48:16.409Z,97.83
2024-01-30T08:49:16.380Z,97.83
2024-01-30T08:50:16.297Z,97.62
2024-01-30T08:51:16.304Z,97.41
2024-01-30T08:52:16.458Z,97.52
2024-01-30T08:53:16.283Z,97.52
2024-01-30T08:54:16.272Z,97.52
2024-01-30T08:55:16.474Z,97.47
2024-01-30T08:56:16.315Z,97.47
2024-01-30T08:57:16.248Z,97.58
2024-01-30T08:58:16.286Z,97.37
2024-01-30T08:59:16.209Z,97.27
2024-01-30T09:00:16.178Z,97.16
2024-01-30T09:01:16.242Z,97.16
2024-01-30T09:02:16.454Z,96.95
2024-01-30T09:03:16.255Z,96.75
2024-01-30T09:04:16.209Z,96.85
2024-01-30T09:05:16.182Z,96.91
2024-01-30T09:06:16.157Z,96.60
2024-01-30T09:07:16.202Z,96.39
2024-01-30T09:08:16.223Z,96.50
2024-01-30T09:09:16.091Z,96.08
2024-01-30T09:10:18.395Z,96.08
2024-01-30T09:11:16.044Z,96.08
2024-01-30T09:12:16.041Z,95.56
2024-01-30T09:13:16.563Z,95.77
2024-01-30T09:14:16.033Z,95.67
2024-01-30T09:15:16.005Z,95.98
2024-01-30T09:16:16.074Z,95.98
2024-01-30T09:17:15.972Z,96.08
2024-01-30T09:18:15.997Z,95.67
2024-01-30T09:19:16.077Z,95.46
2024-01-30T09:20:16.021Z,95.36
2024-01-30T09:21:15.954Z,95.04
2024-01-30T09:22:15.967Z,95.36
2024-01-30T09:23:15.939Z,95.15
2024-01-30T09:24:15.918Z,95.20
2024-01-30T09:25:15.919Z,95.46
2024-01-30T09:26:15.902Z,95.41
2024-01-30T09:27:15.888Z,94.89
2024-01-30T09:28:15.928Z,94.89
2024-01-30T09:29:15.835Z,94.79
2024-01-30T09:30:15.853Z,94.68
2024-01-30T09:31:15.906Z,94.58
2024-01-30T09:32:15.836Z,94.79
2024-01-30T09:33:15.856Z,94.79
2024-01-30T09:34:15.888Z,94.58
2024-01-30T09:35:16.063Z,94.37
2024-01-30T09:36:15.783Z,94.37
2024-01-30T09:37:15.770Z,94.58
2024-01-30T09:38:15.770Z,94.37
2024-01-30T09:39:15.802Z,94.37
2024-01-30T09:40:15.841Z,94.27
2024-01-30T09:41:15.710Z,93.96
2024-01-30T09:42:15.710Z,93.65
2024-01-30T09:43:15.725Z,93.96
2024-01-30T09:44:15.691Z,93.85
2024-01-30T09:45:15.682Z,93.75
2024-01-30T09:46:15.712Z,94.17
2024-01-30T09:47:15.668Z,94.02
2024-01-30T09:48:15.699Z,93.81
2024-01-30T09:49:17.696Z,93.60
2024-01-30T09:50:15.709Z,93.71
2024-01-30T09:51:15.678Z,93.81
2024-01-30T09:52:15.676Z,93.60
2024-01-30T09:53:15.690Z,93.50
2024-01-30T09:54:15.683Z,93.29
2024-01-30T09:55:15.670Z,93.19
2024-01-30T09:56:15.568Z,93.19
2024-01-30T09:57:15.554Z,93.04
2024-01-30T09:58:15.640Z,92.88
2024-01-30T09:59:15.588Z,92.74
2024-01-30T10:00:15.560Z,92.43
2024-01-30T10:01:15.607Z,92.32
2024-01-30T10:02:15.596Z,92.94
2024-01-30T10:03:15.588Z,92.94
2024-01-30T10:04:15.609Z,92.53
2024-01-30T10:05:15.463Z,92.43
2024-01-30T10:06:15.444Z,92.53
2024-01-30T10:07:15.538Z,92.43
2024-01-30T10:08:15.759Z,92.22
2024-01-30T10:09:15.425Z,92.53
2024-01-30T10:10:15.484Z,92.11
2024-01-30T10:11:15.410Z,92.11
2024-01-30T10:12:15.390Z,92.43
2024-01-30T10:13:15.424Z,92.01
2024-01-30T10:14:15.386Z,92.22
2024-01-30T10:15:15.390Z,92.11
2024-01-30T10:16:15.377Z,92.11
2024-01-30T10:17:21.832Z,92.01
2024-01-30T10:18:15.377Z,92.18
2024-01-30T10:19:15.370Z,91.97
2024-01-30T10:20:15.455Z,91.55
2024-01-30T10:21:15.294Z,92.28
2024-01-30T10:22:15.289Z,91.76
2024-01-30T10:23:15.252Z,91.45
2024-01-30T10:24:15.322Z,91.76
2024-01-30T10:25:15.273Z,91.76
2024-01-30T10:26:15.256Z,91.86
2024-01-30T10:27:15.234Z,92.28
2024-01-30T10:28:15.255Z,91.55
2024-01-30T10:29:15.191Z,91.35
2024-01-30T10:30:15.358Z,91.14
2024-01-30T10:31:15.240Z,91.30
2024-01-30T10:32:15.188Z,91.61
2024-01-30T10:33:15.279Z,91.41
2024-01-30T10:34:20.106Z,91.09
2024-01-30T10:35:15.252Z,91.30
2024-01-30T10:36:17.642Z,90.99
2024-01-30T10:37:15.148Z,90.89
2024-01-30T10:38:15.114Z,90.89
2024-01-30T10:39:15.098Z,90.68
2024-01-30T10:40:15.141Z,90.68
2024-01-30T10:41:15.070Z,90.99
2024-01-30T10:42:15.043Z,90.68
2024-01-30T10:43:15.124Z,90.58
2024-01-30T10:44:15.186Z,90.33
2024-01-30T10:45:15.150Z,90.64
2024-01-30T10:46:15.022Z,90.64
2024-01-30T10:47:15.023Z,90.23
2024-01-30T10:48:15.056Z,90.64
2024-01-30T10:49:15.077Z,90.12
2024-01-30T10:50:15.134Z,90.44
2024-01-30T10:51:14.942Z,90.44
2024-01-30T10:52:14.951Z,90.23
2024-01-30T10:53:14.927Z,90.23
2024-01-30T10:54:14.913Z,89.81
2024-01-30T10:55:15.038Z,89.71
2024-01-30T10:56:14.891Z,89.61
2024-01-30T10:57:14.886Z,89.92
2024-01-30T10:58:14.896Z,89.71
2024-01-30T10:59:14.856Z,89.92
2024-01-30T11:00:14.862Z,90.33
2024-01-30T11:01:14.922Z,89.40
2024-01-30T11:02:14.877Z,89.40
2024-01-30T11:03:14.804Z,89.25
2024-01-30T11:04:14.916Z,89.46
2024-01-30T11:05:14.873Z,89.15
2024-01-30T11:06:14.797Z,88.70
2024-01-30T11:07:14.785Z,89.01
2024-01-30T11:08:14.796Z,88.39
2024-01-30T11:09:14.753Z,88.07
2024-01-30T11:10:14.799Z,88.39
2024-01-30T11:11:17.301Z,87.76
2024-01-30T11:12:14.752Z,87.76
2024-01-30T11:13:14.756Z,87.76
2024-01-30T11:14:14.703Z,87.97
2024-01-30T11:15:14.719Z,87.83
2024-01-30T11:16:14.713Z,87.52
2024-01-30T11:17:14.682Z,87.31
2024-01-30T11:18:14.720Z,86.69
2024-01-30T11:19:14.760Z,87.00
2024-01-30T11:20:14.654Z,87.10
2024-01-30T11:21:14.618Z,86.49
2024-01-30T11:22:14.634Z,86.59
2024-01-30T11:23:14.587Z,86.90
2024-01-30T11:24:14.596Z,86.28
2024-01-30T11:25:14.614Z,86.38
2024-01-30T11:26:14.565Z,86.13
2024-01-30T11:27:14.552Z,86.24
2024-01-30T11:28:14.697Z,85.83
2024-01-30T11:29:14.554Z,86.03
2024-01-30T11:30:14.531Z,85.93
2024-01-30T11:31:14.578Z,85.52
2024-01-30T11:32:14.523Z,85.41
2024-01-30T11:33:14.642Z,86.20
2024-01-30T11:34:14.503Z,85.27
2024-01-30T11:35:14.567Z,85.78
2024-01-30T11:36:14.477Z,85.47
2024-01-30T11:37:14.505Z,85.17
2024-01-30T11:38:14.453Z,85.37
2024-01-30T11:39:14.433Z,85.58
2024-01-30T11:40:14.486Z,85.47
2024-01-30T11:41:14.411Z,85.27
2024-01-30T11:42:14.411Z,85.44
2024-01-30T11:43:14.508Z,85.23
2024-01-30T11:44:14.376Z,84.78
2024-01-30T11:45:14.361Z,83.95
2024-01-30T11:46:14.386Z,83.13
2024-01-30T11:47:14.346Z,83.40
2024-01-30T11:48:14.479Z,82.89
2024-01-30T11:49:14.374Z,82.78
2024-01-30T11:50:14.417Z,83.19
2024-01-30T11:51:14.284Z,82.64
2024-01-30T11:52:14.328Z,82.33
2024-01-30T11:53:14.294Z,81.81
2024-01-30T11:54:14.285Z,82.09
2024-01-30T11:55:14.307Z,81.77
2024-01-30T11:56:14.240Z,81.47
2024-01-30T11:57:14.214Z,81.05
2024-01-30T11:58:14.250Z,80.75
2024-01-30T11:59:14.248Z,81.16
2024-01-30T12:00:14.215Z,81.16
2024-01-30T12:01:14.278Z,81.23
2024-01-30T12:02:14.203Z,80.91
2024-01-30T12:03:14.163Z,80.71
2024-01-30T12:04:14.203Z,81.33
2024-01-30T12:05:14.145Z,81.53
2024-01-30T12:06:14.225Z,80.61
2024-01-30T12:07:14.169Z,80.51
2024-01-30T12:08:14.212Z,81.02
2024-01-30T12:09:14.102Z,81.12
2024-01-30T12:10:14.130Z,81.02
2024-01-30T12:11:14.103Z,81.02
2024-01-30T12:12:14.087Z,80.81
2024-01-30T12:13:14.086Z,80.91
2024-01-30T12:14:14.042Z,80.91
2024-01-30T12:15:14.075Z,81.53
2024-01-30T12:16:14.059Z,81.63
2024-01-30T12:17:14.005Z,81.63
2024-01-30T12:18:14.007Z,81.23
2024-01-30T12:19:14.011Z,81.23
2024-01-30T12:20:14.160Z,81.53
2024-01-30T12:21:13.959Z,81.74
2024-01-30T12:22:13.963Z,81.43
2024-01-30T12:23:13.938Z,81.23
2024-01-30T12:24:13.951Z,81.63
2024-01-30T12:25:14.039Z,81.43
2024-01-30T12:26:13.914Z,80.91
2024-01-30T12:27:13.888Z,80.65
2024-01-30T12:28:13.921Z,81.67
2024-01-30T12:29:13.912Z,81.47
2024-01-30T12:30:13.888Z,81.37
2024-01-30T12:31:13.962Z,81.67
2024-01-30T12:32:13.844Z,81.05
2024-01-30T12:33:13.882Z,81.67
2024-01-30T12:34:13.893Z,81.67
2024-01-30T12:35:14.050Z,81.57
2024-01-30T12:36:13.890Z,82.09
2024-01-30T12:37:13.865Z,83.01
2024-01-30T12:38:13.778Z,82.70
2024-01-30T12:39:13.832Z,82.09
2024-01-30T12:40:13.776Z,81.77
2024-01-30T12:41:13.744Z,81.98
2024-01-30T12:42:13.762Z,81.88
2024-01-30T12:43:16.869Z,81.47
2024-01-30T12:44:13.716Z,81.98
2024-01-30T12:45:13.710Z,81.98
2024-01-30T12:46:13.719Z,81.88
2024-01-30T12:47:13.698Z,81.67
2024-01-30T12:48:13.707Z,81.74
2024-01-30T12:49:13.983Z,81.63
2024-01-30T12:50:13.650Z,81.63
2024-01-30T12:51:13.630Z,81.74
2024-01-30T12:52:13.671Z,81.67